Time;durP1;ratioP1;P1;durP2;ratioP2;P2;SDS_P1;SDS_P2;PMS_P1;PMS_P2;Temp;Humidity;BMP_temperature;BMP_pressure;BME280_temperature;BME280_humidity;BME280_pressure;Samples;Min_cycle;Max_cycle;Signal;HPM_P1;HPM_P2
2023/01/22 00:01:27;;;;;;;13.80;11.90;;;;;;;2.51;68.78;103280.81;5073446;28;20041;-76
2023/01/22 00:03:53;;;;;;;16.50;14.95;;;;;;;2.51;68.99;103283.50;5073695;28;20037;-76
2023/01/22 00:06:20;;;;;;;11.23;10.57;;;;;;;2.51;69.06;103278.16;5056245;28;20028;-79
2023/01/22 00:08:47;;;;;;;21.77;16.02;;;;;;;2.51;69.25;103283.50;5073110;28;20431;-76
2023/01/22 00:11:13;;;;;;;22.80;16.02;;;;;;;2.51;68.75;103286.16;5072790;28;20025;-77
2023/01/22 00:13:39;;;;;;;28.55;16.35;;;;;;;2.51;68.92;103291.50;5074322;28;20066;-76
2023/01/22 00:16:05;;;;;;;14.05;12.50;;;;;;;2.50;69.31;103285.31;5073649;28;20127;-76
2023/01/22 00:18:31;;;;;;;14.15;13.13;;;;;;;2.51;69.35;103284.31;5074265;28;20067;-76
2023/01/22 00:20:56;;;;;;;14.75;13.23;;;;;;;2.51;68.98;103288.81;5073351;28;20033;-77
2023/01/22 00:23:23;;;;;;;15.77;13.40;;;;;;;2.50;69.15;103282.66;5073363;28;20052;-76
2023/01/22 00:25:49;;;;;;;15.55;14.05;;;;;;;2.49;69.18;103270.25;5073033;28;20032;-78
2023/01/22 00:28:15;;;;;;;13.45;12.35;;;;;;;2.51;68.95;103275.47;5073079;28;20116;-79
2023/01/22 00:30:41;;;;;;;14.18;12.80;;;;;;;2.49;69.28;103277.44;5072466;28;20033;-79
2023/01/22 00:33:07;;;;;;;15.95;14.32;;;;;;;2.50;68.87;103277.31;5072416;28;20028;-79
2023/01/22 00:35:33;;;;;;;14.27;13.07;;;;;;;2.50;68.97;103279.97;5056723;28;20077;-79
2023/01/22 00:37:59;;;;;;;14.77;13.52;;;;;;;2.49;68.95;103272.09;5073961;28;20107;-78
2023/01/22 00:40:24;;;;;;;15.05;13.50;;;;;;;2.49;69.08;103270.25;5056319;28;20129;-79
2023/01/22 00:42:50;;;;;;;12.68;11.82;;;;;;;2.49;69.36;103266.75;5074190;28;20040;-79
2023/01/22 00:45:15;;;;;;;9.90;9.32;;;;;;;2.48;68.94;103260.59;5072882;28;20468;-79
2023/01/22 00:47:40;;;;;;;12.38;11.30;;;;;;;2.49;69.08;103267.59;5073966;28;20059;-78
2023/01/22 00:50:07;;;;;;;13.75;12.32;;;;;;;2.49;68.84;103262.25;5073603;28;20037;-79
2023/01/22 00:52:33;;;;;;;13.23;11.80;;;;;;;2.48;69.06;103260.59;5074052;28;20376;-76
2023/01/22 00:54:58;;;;;;;20.30;17.05;;;;;;;2.47;69.13;103263.38;5073630;28;20032;-76
2023/01/22 00:57:24;;;;;;;11.60;10.98;;;;;;;2.48;68.87;103254.41;5072031;28;20044;-77
2023/01/22 00:59:51;;;;;;;15.63;14.07;;;;;;;2.47;68.80;103258.91;5072595;28;20468;-76
2023/01/22 01:02:16;;;;;;;18.45;14.85;;;;;;;2.47;69.18;103258.03;5074010;28;20115;-76
2023/01/22 01:04:42;;;;;;;13.73;12.43;;;;;;;2.48;68.92;103259.75;5072437;28;20070;-77
2023/01/22 01:07:07;;;;;;;15.02;13.82;;;;;;;2.45;69.16;103266.19;5055850;28;20027;-77
2023/01/22 01:09:33;;;;;;;15.10;13.57;;;;;;;2.47;69.11;103266.91;5055598;28;20032;-76
2023/01/22 01:11:59;;;;;;;26.48;17.13;;;;;;;2.47;69.34;103260.69;5072133;28;20054;-77
2023/01/22 01:14:25;;;;;;;19.00;14.73;;;;;;;2.47;69.01;103258.91;5073543;28;20476;-76
2023/01/22 01:16:51;;;;;;;13.52;12.48;;;;;;;2.47;68.95;103258.91;5073329;28;20548;-77
2023/01/22 01:19:19;;;;;;;15.40;13.93;;;;;;;2.47;69.20;103256.22;5072316;28;20033;-77
2023/01/22 01:21:45;;;;;;;15.32;14.13;;;;;;;2.47;69.22;103260.69;5073434;28;20077;-77
2023/01/22 01:24:10;;;;;;;17.92;15.88;;;;;;;2.48;68.91;103249.06;5072097;28;20420;-77
2023/01/22 01:26:36;;;;;;;11.98;11.18;;;;;;;2.47;69.20;103250.91;5055359;28;20054;-77
2023/01/22 01:29:03;;;;;;;15.70;14.43;;;;;;;2.46;69.34;103256.34;5071907;28;20380;-77
2023/01/22 01:31:29;;;;;;;17.58;15.77;;;;;;;2.47;69.17;103247.34;5071922;28;20414;-77
2023/01/22 01:33:55;;;;;;;10.73;10.05;;;;;;;2.47;69.11;103244.69;5075709;28;20029;-77
2023/01/22 01:36:22;;;;;;;20.77;17.42;;;;;;;2.47;68.98;103231.34;5076475;28;20369;-77
2023/01/22 01:38:50;;;;;;;16.98;13.30;;;;;;;2.47;69.13;103228.69;5077127;28;20029;-77
2023/01/22 01:41:21;;;;;;;17.25;15.52;;;;;;;2.47;69.25;103231.34;5075988;28;20115;-77
2023/01/22 01:44:07;;;;;;;12.63;11.65;;;;;;;2.47;69.20;103224.22;5077621;28;20033;-77
2023/01/22 01:46:36;;;;;;;14.65;13.43;;;;;;;2.47;68.92;103224.22;5076004;28;20376;-77
2023/01/22 01:49:03;;;;;;;16.67;14.95;;;;;;;2.46;69.31;103221.66;5077040;28;20059;-77
2023/01/22 01:51:32;;;;;;;18.85;16.70;;;;;;;2.45;69.09;103223.50;5075969;28;20064;-77
2023/01/22 01:54:00;;;;;;;13.43;12.50;;;;;;;2.47;69.13;103221.56;5076905;28;20016;-77
2023/01/22 01:56:30;;;;;;;14.30;13.00;;;;;;;2.45;69.07;103226.16;5076985;28;20076;-77
2023/01/22 01:59:03;;;;;;;16.65;15.27;;;;;;;2.44;68.91;103211.09;5076467;28;20357;-77
2023/01/22 02:01:30;;;;;;;12.20;11.27;;;;;;;2.45;69.13;103215.50;5077026;28;20025;-76
2023/01/22 02:03:56;;;;;;;15.88;14.20;;;;;;;2.45;69.21;103212.81;5076914;28;20037;-77
2023/01/22 02:06:22;;;;;;;18.27;14.00;;;;;;;2.44;68.99;103207.59;5077028;28;20086;-76
2023/01/22 02:08:49;;;;;;;15.30;14.07;;;;;;;2.44;69.21;103211.09;5075729;28;20119;-76
2023/01/22 02:11:17;;;;;;;16.27;14.00;;;;;;;2.44;69.27;103202.28;5076393;28;20362;-76
2023/01/22 02:13:48;;;;;;;15.90;14.53;;;;;;;2.44;68.94;103207.59;5076371;28;20028;-77
2023/01/22 02:16:14;;;;;;;16.52;15.07;;;;;;;2.44;69.17;103205.78;5075969;28;20025;-77
2023/01/22 02:18:39;;;;;;;14.30;13.05;;;;;;;2.44;69.12;103210.28;5075494;28;20361;-77
2023/01/22 02:21:29;;;;;;;16.13;14.55;;;;;;;2.44;68.87;103200.44;5075680;28;20032;-77
2023/01/22 02:23:54;;;;;;;11.77;11.07;;;;;;;2.44;68.92;103203.09;5075407;28;20059;-77
2023/01/22 02:26:20;;;;;;;14.23;12.93;;;;;;;2.44;68.95;103197.78;5058499;28;20484;-77
2023/01/22 02:28:45;;;;;;;14.95;13.70;;;;;;;2.43;68.90;103192.59;5076183;28;20104;-77
2023/01/22 02:31:10;;;;;;;20.05;16.40;;;;;;;2.43;69.30;103190.75;5075126;28;20119;-77
2023/01/22 02:33:36;;;;;;;11.93;11.10;;;;;;;2.44;69.06;103192.44;5076233;28;20043;-77
2023/01/22 02:36:01;;;;;;;15.13;13.85;;;;;;;2.43;68.88;103190.75;5076125;28;20036;-77
2023/01/22 02:38:27;;;;;;;13.98;12.95;;;;;;;2.44;69.16;103191.59;5076245;28;20033;-77
2023/01/22 02:40:53;;;;;;;14.20;13.35;;;;;;;2.43;69.13;103184.59;5075057;28;20039;-77
2023/01/22 02:43:18;;;;;;;18.45;16.70;;;;;;;2.43;69.17;103182.75;5074739;28;20134;-77
2023/01/22 02:45:44;;;;;;;19.95;16.63;;;;;;;2.42;68.91;103172.19;5074818;28;20035;-77
2023/01/22 02:48:09;;;;;;;13.77;12.52;;;;;;;2.43;68.85;103173.91;5074864;28;20033;-77
2023/01/22 02:50:34;;;;;;;16.05;14.45;;;;;;;2.43;68.99;103179.25;5074823;28;20082;-77
2023/01/22 02:53:00;;;;;;;17.08;15.32;;;;;;;2.42;68.82;103175.75;5074401;28;20045;-77
2023/01/22 02:55:25;;;;;;;15.23;13.63;;;;;;;2.42;68.74;103174.88;5057952;28;20028;-78
2023/01/22 02:57:51;;;;;;;15.00;13.55;;;;;;;2.42;68.88;103172.19;5072343;28;20061;-77
2023/01/22 03:00:16;;;;;;;12.50;11.57;;;;;;;2.41;68.97;103168.69;5076248;28;20033;-77
2023/01/22 03:02:42;;;;;;;18.55;14.75;;;;;;;2.41;68.87;103166.03;5058416;28;20028;-78
2023/01/22 03:05:07;;;;;;;14.75;12.93;;;;;;;2.40;69.08;103167.00;5074537;28;20033;-77
2023/01/22 03:07:43;;;;;;;12.57;11.48;;;;;;;2.40;68.72;103158.19;5074586;28;20032;-77
2023/01/22 03:10:12;;;;;;;16.40;14.93;;;;;;;2.39;69.23;103159.97;5059487;28;20039;-77
2023/01/22 03:23:33;;;;;;;13.30;12.20;;;;;;;2.36;68.62;103154.91;5075450;28;20048;-78
2023/01/22 03:25:58;;;;;;;11.27;10.25;;;;;;;2.33;68.67;103148.00;5075746;28;20024;-78
2023/01/22 03:28:25;;;;;;;14.15;12.82;;;;;;;2.34;68.99;103144.38;5076222;28;20036;-78
2023/01/22 03:30:51;;;;;;;14.40;13.20;;;;;;;2.35;68.88;103147.88;5074186;28;20457;-78
2023/01/22 03:33:16;;;;;;;16.23;14.75;;;;;;;2.35;68.93;103145.22;5074130;28;20062;-78
2023/01/22 03:35:42;;;;;;;12.15;11.45;;;;;;;2.34;68.96;103141.72;5074697;28;20029;-78
2023/01/22 03:38:07;;;;;;;12.30;11.52;;;;;;;2.33;68.97;103137.34;5074295;28;20086;-78
2023/01/22 03:40:33;;;;;;;16.95;15.00;;;;;;;2.34;69.06;103151.50;5074911;28;20488;-78
2023/01/22 03:42:58;;;;;;;12.25;11.43;;;;;;;2.33;68.91;103148.00;5057303;28;20389;-78
2023/01/22 03:45:23;;;;;;;13.48;12.25;;;;;;;2.34;68.71;103151.50;5057305;28;20071;-78
2023/01/22 03:47:50;;;;;;;14.77;12.95;;;;;;;2.34;68.67;103151.50;5073490;28;20404;-78
2023/01/22 03:50:15;;;;;;;15.98;13.18;;;;;;;2.34;68.58;103149.72;5041224;28;20032;-78
2023/01/22 03:52:41;;;;;;;15.30;13.18;;;;;;;2.33;68.69;103152.50;5075462;28;20032;-78
2023/01/22 03:55:06;;;;;;;12.15;11.43;;;;;;;2.34;68.57;103148.84;5056451;28;20067;-78
2023/01/22 03:57:32;;;;;;;10.88;10.05;;;;;;;2.33;68.68;103152.50;5073440;28;20060;-78
2023/01/22 04:00:00;;;;;;;18.13;16.33;;;;;;;2.31;68.80;103139.28;5074754;28;20036;-78
2023/01/22 04:02:27;;;;;;;15.50;14.00;;;;;;;2.33;68.63;103149.84;5073487;28;20082;-78
2023/01/22 04:04:52;;;;;;;13.50;12.23;;;;;;;2.33;68.80;103139.16;5073479;28;20388;-78
2023/01/22 04:07:20;;;;;;;14.25;13.05;;;;;;;2.33;68.76;103141.84;5056766;28;20464;-77
2023/01/22 04:09:45;;;;;;;17.80;15.18;;;;;;;2.31;68.71;103133.94;5073449;28;20033;-78
2023/01/22 04:12:10;;;;;;;17.63;15.93;;;;;;;2.31;68.84;103130.44;5073662;28;20037;-78
2023/01/22 04:14:36;;;;;;;13.18;11.80;;;;;;;2.30;68.89;103126.94;5073445;28;20103;-78
2023/01/22 04:17:01;;;;;;;15.25;13.57;;;;;;;2.30;68.85;103126.09;5073236;28;20029;-78
2023/01/22 04:19:26;;;;;;;20.83;18.70;;;;;;;2.30;68.68;103131.44;5057064;28;20064;-78
2023/01/22 04:21:52;;;;;;;13.13;12.10;;;;;;;2.31;68.59;103131.28;5073123;28;20389;-77
2023/01/22 04:24:17;;;;;;;14.68;13.32;;;;;;;2.30;68.88;103134.09;5072897;28;20036;-77
2023/01/22 04:26:43;;;;;;;16.73;15.15;;;;;;;2.30;68.57;103136.75;5074184;28;20035;-77
2023/01/22 04:29:08;;;;;;;16.33;14.80;;;;;;;2.31;68.79;103133.09;5057026;28;20047;-78
2023/01/22 04:31:34;;;;;;;15.27;12.48;;;;;;;2.31;68.49;103138.44;5073063;28;20393;-77
2023/01/22 04:33:59;;;;;;;12.00;11.05;;;;;;;2.31;68.63;103135.78;5073960;28;20100;-77
2023/01/22 04:36:25;;;;;;;16.55;14.52;;;;;;;2.30;68.54;103142.09;5072863;28;20124;-77
2023/01/22 04:38:50;;;;;;;16.02;13.48;;;;;;;2.29;68.67;103137.72;5055807;28;20032;-77
2023/01/22 04:41:15;;;;;;;11.68;10.82;;;;;;;2.28;68.52;103133.38;5074129;28;20037;-77
2023/01/22 04:43:41;;;;;;;16.58;14.80;;;;;;;2.29;69.01;103145.72;5055979;28;20045;-77
2023/01/22 04:46:06;;;;;;;10.68;10.00;;;;;;;2.29;68.93;103140.38;5074160;28;20067;-77
2023/01/22 04:48:32;;;;;;;14.68;13.48;;;;;;;2.29;68.94;103138.59;5055888;28;20029;-77
2023/01/22 04:50:57;;;;;;;27.65;13.77;;;;;;;2.29;68.95;103133.25;5072504;28;20029;-77
2023/01/22 04:53:22;;;;;;;15.73;14.20;;;;;;;2.30;68.67;103128.75;5074161;28;20050;-77
2023/01/22 04:55:48;;;;;;;16.50;14.88;;;;;;;2.29;68.74;103133.25;5056010;28;20036;-77
2023/01/22 04:58:13;;;;;;;17.08;15.48;;;;;;;2.29;69.08;103132.38;5072469;28;20135;-78
2023/01/22 05:00:39;;;;;;;16.25;14.20;;;;;;;2.29;68.89;103140.38;5072115;28;20052;-77
2023/01/22 05:03:04;;;;;;;15.45;14.18;;;;;;;2.29;68.55;103148.38;5038769;28;20499;-78
2023/01/22 05:05:30;;;;;;;15.57;13.98;;;;;;;2.29;68.95;103148.38;5056487;28;20033;-78
2023/01/22 05:07:56;;;;;;;11.43;10.45;;;;;;;2.30;68.64;103150.94;5071184;28;20020;-77
2023/01/22 05:10:22;;;;;;;15.70;14.15;;;;;;;2.28;68.83;103144.88;5073428;28;20472;-77
2023/01/22 05:12:48;;;;;;;12.55;11.60;;;;;;;2.29;68.90;103148.38;5055484;28;20060;-78
2023/01/22 05:15:14;;;;;;;14.88;13.52;;;;;;;2.29;68.50;103149.25;5055816;28;20060;-78
2023/01/22 05:17:39;;;;;;;15.50;13.68;;;;;;;2.28;68.91;103152.88;5056149;28;20119;-77
2023/01/22 05:20:06;;;;;;;15.98;14.48;;;;;;;2.28;68.66;103144.88;5072078;28;20380;-78
2023/01/22 05:22:31;;;;;;;18.33;16.70;;;;;;;2.28;68.47;103146.69;5073125;28;20056;-77
2023/01/22 05:24:56;;;;;;;14.25;12.30;;;;;;;2.27;68.75;103140.53;5055378;28;20491;-78
2023/01/22 05:27:22;;;;;;;14.52;13.38;;;;;;;2.28;68.83;103147.53;5071815;28;20024;-78
2023/01/22 05:29:47;;;;;;;15.20;13.50;;;;;;;2.28;68.87;103154.72;5072608;28;20041;-78
2023/01/22 05:32:14;;;;;;;16.20;14.70;;;;;;;2.27;68.74;103153.88;5072593;28;20105;-78
2023/01/22 05:34:40;;;;;;;12.60;11.70;;;;;;;2.27;68.52;103153.00;5055867;28;20549;-77
2023/01/22 05:37:05;;;;;;;13.48;12.32;;;;;;;2.27;68.86;103156.53;5072123;28;20028;-78
2023/01/22 05:39:30;;;;;;;13.52;12.50;;;;;;;2.27;68.60;103156.53;5055142;28;20040;-78
2023/01/22 05:41:56;;;;;;;15.55;13.95;;;;;;;2.28;68.38;103162.72;5038745;28;20083;-77
2023/01/22 05:44:21;;;;;;;13.00;12.20;;;;;;;2.28;68.57;103150.22;5073112;28;20044;-78
2023/01/22 05:46:47;;;;;;;14.30;12.82;;;;;;;2.26;68.83;103151.31;5071968;28;20369;-78
2023/01/22 05:49:12;;;;;;;12.50;11.60;;;;;;;2.27;68.59;103156.53;5073708;28;20032;-78
2023/01/22 05:51:37;;;;;;;16.80;14.90;;;;;;;2.27;68.68;103161.00;5071866;28;20040;-77
2023/01/22 05:54:03;;;;;;;12.73;11.65;;;;;;;2.26;68.44;103165.50;5072728;28;20052;-78
2023/01/22 05:56:30;;;;;;;15.90;14.50;;;;;;;2.25;68.62;103152.31;5070469;28;20053;-77
2023/01/22 05:58:56;;;;;;;14.68;13.20;;;;;;;2.26;68.54;103164.66;5073070;28;20036;-78
2023/01/22 06:01:22;;;;;;;14.88;13.48;;;;;;;2.27;68.76;103163.66;5055179;28;20066;-77
2023/01/22 06:03:47;;;;;;;16.73;14.98;;;;;;;2.26;68.71;103173.50;5073536;28;20028;-78
2023/01/22 06:06:14;;;;;;;15.10;13.88;;;;;;;2.26;68.42;103175.31;5073540;28;20024;-77
2023/01/22 06:08:39;;;;;;;16.75;14.52;;;;;;;2.25;68.80;103176.31;5071544;28;20475;-77
2023/01/22 06:11:07;;;;;;;10.52;9.93;;;;;;;2.25;68.69;103169.16;5072981;28;20060;-77
2023/01/22 06:13:33;;;;;;;18.02;16.27;;;;;;;2.25;68.78;103173.63;5072060;28;20024;-77
2023/01/22 06:15:59;;;;;;;14.25;12.82;;;;;;;2.25;68.39;103169.16;5072011;28;20559;-77
2023/01/22 06:18:25;;;;;;;16.70;15.10;;;;;;;2.26;68.67;103167.31;5071848;28;20021;-78
2023/01/22 06:20:51;;;;;;;11.98;10.95;;;;;;;2.24;68.49;103172.75;5075373;28;20029;-77
2023/01/22 06:23:17;;;;;;;13.40;12.30;;;;;;;2.24;68.31;103172.75;5075602;28;20028;-77
2023/01/22 06:25:43;;;;;;;18.02;15.85;;;;;;;2.24;68.42;103164.75;5076198;28;20086;-78
2023/01/22 06:28:09;;;;;;;15.18;14.20;;;;;;;2.23;68.44;103170.25;5075215;28;20028;-77
2023/01/22 06:30:36;;;;;;;16.63;14.82;;;;;;;2.22;68.28;103173.88;5076026;28;20421;-77
2023/01/22 06:33:01;;;;;;;15.02;13.43;;;;;;;2.22;68.40;103172.06;5074754;28;20032;-78
2023/01/22 06:35:26;;;;;;;14.18;12.90;;;;;;;2.22;68.19;103166.75;5058826;28;20040;-77
2023/01/22 06:37:52;;;;;;;13.05;11.93;;;;;;;2.22;68.42;103163.19;5074832;28;20568;-78
2023/01/22 06:40:17;;;;;;;11.98;11.23;;;;;;;2.21;68.67;103161.53;5058804;28;20028;-78
2023/01/22 06:42:42;;;;;;;12.52;11.40;;;;;;;2.20;68.37;103166.00;5076413;28;20066;-77
2023/01/22 06:45:08;;;;;;;16.33;14.63;;;;;;;2.21;68.62;103170.34;5075398;28;20041;-78
2023/01/22 06:47:34;;;;;;;15.63;12.32;;;;;;;2.23;68.22;103175.56;5074766;28;20483;-77
2023/01/22 06:49:59;;;;;;;14.35;13.05;;;;;;;2.21;68.40;103186.38;5076048;28;20031;-78
2023/01/22 06:52:25;;;;;;;14.63;13.18;;;;;;;2.21;68.36;103185.53;5075603;28;20178;-78
2023/01/22 06:54:50;;;;;;;11.20;10.50;;;;;;;2.21;68.44;103189.03;5074541;28;20490;-78
2023/01/22 06:57:15;;;;;;;12.57;11.68;;;;;;;2.21;68.23;103183.69;5072128;28;20053;-78
2023/01/22 06:59:41;;;;;;;16.40;14.60;;;;;;;2.21;68.63;103185.53;5058433;28;20049;-77
2023/01/22 07:02:08;;;;;;;15.93;13.93;;;;;;;2.21;68.48;103188.19;5074644;28;20020;-78
2023/01/22 07:04:33;;;;;;;18.17;16.27;;;;;;;2.21;68.20;103178.34;5076077;28;20111;-78
2023/01/22 07:06:59;;;;;;;15.00;13.52;;;;;;;2.21;68.12;103194.34;5075121;28;20140;-78
2023/01/22 07:09:24;;;;;;;11.98;10.95;;;;;;;2.20;68.21;103192.69;5075776;28;20044;-79
2023/01/22 07:11:49;;;;;;;12.55;11.75;;;;;;;2.21;68.32;103190.84;5041244;28;20025;-78
2023/01/22 07:14:15;;;;;;;11.45;10.55;;;;;;;2.20;68.37;103197.19;5074452;28;20495;-78
2023/01/22 07:16:40;;;;;;;17.02;15.20;;;;;;;2.20;68.48;103197.19;5041794;28;20033;-78
2023/01/22 07:19:05;;;;;;;12.65;11.60;;;;;;;2.18;68.68;103199.97;5074632;28;20396;-78
2023/01/22 07:21:31;;;;;;;15.57;14.13;;;;;;;2.17;68.70;103193.78;5057539;28;20036;-79
2023/01/22 07:23:56;;;;;;;13.57;12.38;;;;;;;2.19;68.63;103198.97;5074323;28;20044;-79
2023/01/22 07:26:22;;;;;;;12.55;11.65;;;;;;;2.19;68.31;103198.97;5057848;28;20039;-79
2023/01/22 07:28:47;;;;;;;14.73;13.40;;;;;;;2.20;68.11;103197.19;5075376;28;20445;-79
2023/01/22 07:31:16;;;;;;;14.93;13.70;;;;;;;2.20;68.58;103195.34;5073340;28;20040;-79
2023/01/22 07:33:41;;;;;;;15.77;14.18;;;;;;;2.21;68.44;103199.69;5075239;28;20033;-79
2023/01/22 07:36:07;;;;;;;15.73;13.85;;;;;;;2.21;68.55;103202.38;5040940;28;20031;-79
2023/01/22 07:38:32;;;;;;;12.40;11.30;;;;;;;2.22;68.41;103197.88;5073963;28;20055;-79
2023/01/22 07:41:05;;;;;;;13.98;12.48;;;;;;;2.23;68.64;103192.41;5074489;28;20381;-79
2023/01/22 07:43:31;;;;;;;14.10;12.95;;;;;;;2.23;68.55;103194.25;5075118;28;20092;-79
2023/01/22 07:46:00;;;;;;;13.70;12.45;;;;;;;2.23;68.61;103188.91;5040806;28;20063;-78
2023/01/22 07:48:25;;;;;;;13.93;12.90;;;;;;;2.23;68.57;103195.09;5074105;28;20033;-80
2023/01/22 07:50:50;;;;;;;16.25;14.85;;;;;;;2.23;68.59;103199.59;5056973;28;20482;-79
2023/01/22 07:53:16;;;;;;;16.60;13.88;;;;;;;2.23;68.45;103199.59;5074683;28;20028;-78
2023/01/22 07:55:42;;;;;;;14.73;13.57;;;;;;;2.22;68.53;103204.06;5073648;28;20475;-79
2023/01/22 07:58:07;;;;;;;17.65;13.60;;;;;;;2.23;68.26;103203.09;5073640;28;20053;-78
2023/01/22 08:00:34;;;;;;;14.77;13.38;;;;;;;2.23;68.56;103204.91;5073783;28;20456;-79
2023/01/22 08:03:02;;;;;;;14.18;12.65;;;;;;;2.24;68.77;103206.59;5056743;28;20126;-79
2023/01/22 08:05:27;;;;;;;10.40;9.80;;;;;;;2.23;68.45;103216.41;5074897;28;20040;-79
2023/01/22 08:07:52;;;;;;;16.25;13.50;;;;;;;2.23;68.48;103219.09;5074273;28;20032;-79
2023/01/22 08:10:18;;;;;;;11.48;10.75;;;;;;;2.23;68.79;103213.75;5074233;28;20103;-78
2023/01/22 08:12:44;;;;;;;13.57;12.38;;;;;;;2.23;68.75;103210.25;5074419;28;20376;-79
2023/01/22 08:15:10;;;;;;;12.15;11.25;;;;;;;2.23;68.34;103219.09;5056750;28;20522;-79
2023/01/22 08:17:37;;;;;;;13.60;12.70;;;;;;;2.24;68.44;103206.59;5073460;28;20036;-79
2023/01/22 08:20:03;;;;;;;14.30;12.88;;;;;;;2.23;68.55;103216.41;5073316;28;20032;-79
2023/01/22 08:22:29;;;;;;;13.43;12.48;;;;;;;2.24;68.65;103206.59;5073090;28;20126;-79
2023/01/22 08:24:54;;;;;;;17.40;14.77;;;;;;;2.24;68.63;103212.78;5072983;28;20175;-78
2023/01/22 08:27:20;;;;;;;14.07;12.80;;;;;;;2.24;68.67;103209.25;5040308;28;20111;-78
2023/01/22 08:29:46;;;;;;;14.57;13.35;;;;;;;2.24;68.40;103209.25;5055998;28;20032;-78
2023/01/22 08:32:12;;;;;;;13.35;12.35;;;;;;;2.25;68.62;103214.47;5056311;28;20037;-79
2023/01/22 08:34:37;;;;;;;11.20;10.52;;;;;;;2.24;68.63;103211.94;5072730;28;20048;-79
2023/01/22 08:37:02;;;;;;;14.80;13.40;;;;;;;2.26;68.68;103223.31;5056415;28;20365;-79
2023/01/22 08:39:28;;;;;;;13.48;12.23;;;;;;;2.25;68.62;103217.16;5072578;28;20103;-80
2023/01/22 08:41:56;;;;;;;18.63;14.30;;;;;;;2.24;68.36;103220.75;5073846;28;20379;-78
2023/01/22 08:44:23;;;;;;;12.95;11.85;;;;;;;2.24;68.44;103215.44;5072133;28;20029;-79
2023/01/22 08:46:49;;;;;;;13.45;12.35;;;;;;;2.25;68.64;103224.31;5073712;28;20487;-79
2023/01/22 08:49:14;;;;;;;12.77;11.98;;;;;;;2.24;68.43;103227.94;5073863;28;20024;-78
2023/01/22 08:51:40;;;;;;;15.77;14.43;;;;;;;2.25;68.40;103227.81;5074090;28;20032;-79
2023/01/22 08:54:05;;;;;;;13.15;12.20;;;;;;;2.25;68.83;103232.31;5072177;28;20123;-78
2023/01/22 08:56:30;;;;;;;15.98;14.40;;;;;;;2.26;68.67;103234.00;5072329;28;20028;-77
2023/01/22 08:58:58;;;;;;;15.45;14.18;;;;;;;2.27;68.68;103230.34;5054236;28;20123;-79
2023/01/22 09:01:24;;;;;;;14.37;12.87;;;;;;;2.25;68.40;103229.63;5039838;28;20127;-79
2023/01/22 09:03:49;;;;;;;14.32;13.18;;;;;;;2.26;68.62;103228.66;5072698;28;20131;-79
2023/01/22 09:06:15;;;;;;;14.95;13.60;;;;;;;2.25;68.58;103229.63;5073403;28;20028;-79
2023/01/22 09:08:40;;;;;;;12.13;11.43;;;;;;;2.25;68.41;103227.81;5073478;28;20067;-79
2023/01/22 09:11:06;;;;;;;13.82;12.80;;;;;;;2.25;68.46;103233.16;5055175;28;20036;-79
2023/01/22 09:13:31;;;;;;;12.60;11.40;;;;;;;2.26;68.72;103234.00;5072365;28;20037;-79
2023/01/22 09:15:57;;;;;;;14.43;13.20;;;;;;;2.25;68.66;103233.16;5072018;28;20027;-79
2023/01/22 09:18:23;;;;;;;16.77;13.27;;;;;;;2.24;68.79;103226.09;5073436;28;20075;-79
2023/01/22 09:20:48;;;;;;;14.35;13.02;;;;;;;2.25;68.69;103224.31;5072314;28;20447;-79
2023/01/22 09:23:14;;;;;;;14.20;12.98;;;;;;;2.25;68.77;103224.31;5072085;28;20111;-78
2023/01/22 09:25:39;;;;;;;13.98;12.68;;;;;;;2.27;68.39;103233.00;5071789;28;20074;-78
2023/01/22 09:28:07;;;;;;;14.45;13.15;;;;;;;2.27;68.63;103230.34;5072221;28;20055;-78
2023/01/22 09:30:34;;;;;;;14.63;13.23;;;;;;;2.27;68.46;103233.88;5055494;28;20492;-78
2023/01/22 09:32:59;;;;;;;13.88;12.77;;;;;;;2.27;68.61;103238.34;5071717;28;20048;-79
2023/01/22 09:35:26;;;;;;;15.73;12.80;;;;;;;2.27;68.78;103238.34;5071972;28;20464;-78
2023/01/22 09:37:51;;;;;;;15.13;13.73;;;;;;;2.26;68.53;103242.81;5055126;28;20074;-76
2023/01/22 09:40:28;;;;;;;13.88;12.77;;;;;;;2.27;68.82;103243.66;5072192;28;20032;-77
2023/01/22 09:43:20;;;;;;;15.00;13.50;;;;;;;2.28;68.63;103248.88;5071691;28;20035;-77
2023/01/22 09:45:46;;;;;;;17.80;15.95;;;;;;;2.26;68.71;103242.00;5072394;28;20036;-78
2023/01/22 09:48:16;;;;;;;13.25;12.13;;;;;;;2.27;68.56;103246.34;5071728;28;20055;-78
2023/01/22 09:50:42;;;;;;;13.07;12.05;;;;;;;2.27;68.76;103249.00;5072975;28;20468;-78
2023/01/22 09:53:13;;;;;;;17.25;14.80;;;;;;;2.27;68.47;103247.22;5071748;28;20036;-80
2023/01/22 09:55:44;;;;;;;12.13;11.30;;;;;;;2.28;68.52;103248.03;5075829;28;20039;-77
2023/01/22 09:58:14;;;;;;;14.80;13.57;;;;;;;2.27;68.47;103247.22;5072993;28;20060;-76
2023/01/22 10:00:45;;;;;;;14.20;12.98;;;;;;;2.28;68.63;103245.38;5075865;28;20036;-77
2023/01/22 10:03:21;;;;;;;14.05;13.15;;;;;;;2.28;68.64;103251.56;5075561;28;20025;-78
2023/01/22 10:06:14;;;;;;;15.55;14.32;;;;;;;2.28;68.87;103250.72;5076852;28;20495;-79
2023/01/22 10:09:13;;;;;;;13.45;12.40;;;;;;;2.29;68.50;103253.28;5069440;28;20058;-79
2023/01/22 10:11:38;;;;;;;15.00;13.48;;;;;;;2.28;68.94;103256.88;5074930;28;20060;-79
2023/01/22 10:14:08;;;;;;;14.05;12.80;;;;;;;2.28;68.48;103256.06;5076201;28;20068;-78
2023/01/22 10:16:33;;;;;;;11.70;10.82;;;;;;;2.27;68.70;103255.22;5075255;28;20029;-78
2023/01/22 10:19:12;;;;;;;14.68;13.45;;;;;;;2.27;68.65;103257.00;5058709;28;20526;-79
2023/01/22 10:22:05;;;;;;;15.00;13.50;;;;;;;2.28;68.77;103254.22;5076331;28;20029;-78
2023/01/22 10:24:31;;;;;;;13.02;11.75;;;;;;;2.28;68.64;103251.56;5069006;28;20067;-79
2023/01/22 10:26:58;;;;;;;14.55;13.18;;;;;;;2.27;68.79;103249.00;5058202;28;20056;-78
2023/01/22 10:29:30;;;;;;;12.20;11.30;;;;;;;2.28;68.59;103250.72;5058564;28;20040;-79
2023/01/22 10:31:58;;;;;;;16.67;14.98;;;;;;;2.28;68.44;103248.88;5074603;28;20024;-78
2023/01/22 10:34:32;;;;;;;14.40;13.23;;;;;;;2.28;68.55;103248.03;5075765;28;20029;-79
2023/01/22 10:37:13;;;;;;;14.43;13.10;;;;;;;2.28;68.88;103248.03;5075095;28;20033;-79
2023/01/22 10:39:40;;;;;;;11.55;10.75;;;;;;;2.28;68.47;103248.88;5075456;28;20349;-78
2023/01/22 10:42:14;;;;;;;16.80;15.20;;;;;;;2.28;68.67;103250.72;5074363;28;20391;-77
2023/01/22 10:44:39;;;;;;;13.45;12.55;;;;;;;2.29;68.95;103247.06;5074705;28;20411;-77
2023/01/22 10:47:19;;;;;;;15.95;14.50;;;;;;;2.29;68.86;103244.41;5074391;28;20074;-77
2023/01/22 10:49:59;;;;;;;12.57;11.63;;;;;;;2.29;68.84;103247.94;5074921;28;20021;-77
2023/01/22 10:52:37;;;;;;;11.80;10.85;;;;;;;2.29;68.97;103252.41;5075090;28;20024;-75
2023/01/22 10:55:03;;;;;;;14.73;13.57;;;;;;;2.29;68.92;103250.59;5074357;28;20020;-74
2023/01/22 10:57:35;;;;;;;12.57;11.48;;;;;;;2.30;68.58;103248.78;5074054;28;20052;-74
2023/01/22 11:00:12;;;;;;;15.88;14.18;;;;;;;2.30;68.88;103240.78;5075381;28;20039;-74
2023/01/22 11:02:41;;;;;;;14.40;13.13;;;;;;;2.29;69.06;103247.94;5074163;28;20028;-74
2023/01/22 11:05:17;;;;;;;15.75;14.45;;;;;;;2.30;68.60;103249.63;5074621;28;20039;-74
2023/01/22 11:07:45;;;;;;;14.05;13.07;;;;;;;2.29;68.74;103244.41;5075450;28;20033;-73
2023/01/22 11:10:22;;;;;;;13.32;12.13;;;;;;;2.29;68.97;103242.59;5075336;28;20157;-74
2023/01/22 11:13:06;;;;;;;12.65;11.68;;;;;;;2.30;68.82;103241.63;5073761;28;20042;-74
2023/01/22 11:15:42;;;;;;;14.85;12.95;;;;;;;2.30;68.67;103249.63;5074502;28;20032;-74
2023/01/22 11:18:17;;;;;;;17.90;16.10;;;;;;;2.31;68.78;103253.13;5075475;28;20056;-74
2023/01/22 11:20:53;;;;;;;13.65;12.43;;;;;;;2.31;69.07;103248.63;5075292;28;20380;-76
2023/01/22 11:23:40;;;;;;;12.55;11.55;;;;;;;2.32;68.96;103249.50;5074906;28;20035;-74
2023/01/22 11:26:18;;;;;;;18.30;16.30;;;;;;;2.32;68.73;103244.16;5073591;28;20024;-74
2023/01/22 11:28:56;;;;;;;14.10;12.93;;;;;;;2.32;69.02;103247.69;5074984;28;20472;-74